Time;durP1;ratioP1;P1;durP2;ratioP2;P2;SDS_P1;SDS_P2;PMS_P1;PMS_P2;Temp;Humidity;BMP_temperature;BMP_pressure;BME280_temperature;BME280_humidity;BME280_pressure;Samples;Min_cycle;Max_cycle;Signal;HPM_P1;HPM_P2
2022/03/21 00:01:52;;;;;;;0.03;0.03;;;;;;;;;;4955439;29;20225;-74
2022/03/21 00:04:20;;;;;;;0.10;0.10;;;;;;;;;;4955687;28;20199;-73
2022/03/21 00:06:47;;;;;;;1.70;1.40;;;;;;;;;;4955384;29;20207;-74
2022/03/21 00:09:15;;;;;;;0.07;0.07;;;;;;;;;;4955420;29;20652;-74
2022/03/21 00:11:43;;;;;;;0.00;0.00;;;;;;;;;;4955519;29;20199;-73
2022/03/21 00:14:12;;;;;;;0.00;0.00;;;;;;;;;;4955313;28;20191;-73
2022/03/21 00:16:40;;;;;;;0.63;0.63;;;;;;;;;;4954963;29;20218;-73
2022/03/21 00:19:07;;;;;;;1.17;1.07;;;;;;;;;;4955340;29;20254;-72
2022/03/21 00:21:35;;;;;;;0.00;0.00;;;;;;;;;;4955121;29;20223;-73
2022/03/21 00:24:03;;;;;;;0.00;0.00;;;;;;;;;;4954943;29;20254;-73
2022/03/21 00:26:30;;;;;;;0.40;0.40;;;;;;;;;;4955197;29;20226;-73
2022/03/21 00:28:58;;;;;;;0.00;0.00;;;;;;;;;;4954990;29;20282;-73
2022/03/21 00:31:27;;;;;;;1.37;1.10;;;;;;;;;;4954928;29;20293;-73
2022/03/21 00:33:54;;;;;;;1.60;1.13;;;;;;;;;;4955218;29;20250;-73
2022/03/21 00:36:22;;;;;;;0.00;0.00;;;;;;;;;;4955089;29;20194;-73
2022/03/21 00:38:50;;;;;;;0.00;0.00;;;;;;;;;;4954672;29;20285;-73
2022/03/21 00:41:18;;;;;;;0.10;0.10;;;;;;;;;;4954795;29;20223;-73
2022/03/21 00:43:46;;;;;;;0.93;0.93;;;;;;;;;;4955011;28;20203;-73
2022/03/21 00:46:14;;;;;;;0.00;0.00;;;;;;;;;;4954978;29;20195;-73
2022/03/21 00:48:43;;;;;;;1.80;1.80;;;;;;;;;;4954608;29;20217;-73
2022/03/21 00:51:11;;;;;;;0.00;0.00;;;;;;;;;;4954684;29;20282;-73
2022/03/21 00:53:39;;;;;;;0.30;0.30;;;;;;;;;;4954714;29;20195;-73
2022/03/21 00:56:07;;;;;;;0.00;0.00;;;;;;;;;;4954600;29;20199;-72
2022/03/21 00:58:34;;;;;;;1.27;1.27;;;;;;;;;;4954226;29;20326;-72
2022/03/21 01:01:01;;;;;;;0.00;0.00;;;;;;;;;;4954800;28;20617;-72
2022/03/21 01:03:29;;;;;;;0.10;0.10;;;;;;;;;;4954474;29;20227;-73
2022/03/21 01:05:58;;;;;;;0.00;0.00;;;;;;;;;;4954008;28;20217;-73
2022/03/21 01:08:25;;;;;;;0.17;0.17;;;;;;;;;;4954368;29;20195;-73
2022/03/21 01:10:53;;;;;;;0.00;0.00;;;;;;;;;;4954316;29;20203;-73
2022/03/21 01:13:21;;;;;;;0.00;0.00;;;;;;;;;;4954511;29;20195;-73
2022/03/21 01:15:49;;;;;;;0.00;0.00;;;;;;;;;;4954286;29;20195;-73
2022/03/21 01:18:17;;;;;;;0.10;0.10;;;;;;;;;;4954273;29;20191;-72
2022/03/21 01:20:44;;;;;;;1.03;1.03;;;;;;;;;;4954046;29;20230;-73
2022/03/21 01:23:13;;;;;;;3.30;3.10;;;;;;;;;;4954023;29;20226;-73
2022/03/21 01:25:40;;;;;;;0.47;0.47;;;;;;;;;;4954182;29;20290;-73
2022/03/21 01:28:08;;;;;;;0.43;0.43;;;;;;;;;;4954245;29;20198;-72
2022/03/21 01:30:36;;;;;;;0.00;0.00;;;;;;;;;;4954025;29;20199;-72
2022/03/21 01:33:04;;;;;;;0.00;0.00;;;;;;;;;;4954116;29;20195;-73
2022/03/21 01:35:31;;;;;;;0.43;0.43;;;;;;;;;;4954155;29;20207;-72
2022/03/21 01:37:59;;;;;;;0.37;0.37;;;;;;;;;;4954067;29;20191;-73
2022/03/21 01:40:28;;;;;;;0.00;0.00;;;;;;;;;;4954299;29;20627;-72
2022/03/21 01:42:55;;;;;;;0.00;0.00;;;;;;;;;;4954082;29;20230;-72
2022/03/21 01:45:26;;;;;;;2.43;1.47;;;;;;;;;;4954049;29;20313;-73
2022/03/21 01:47:53;;;;;;;0.20;0.20;;;;;;;;;;4954007;29;20190;-73
2022/03/21 01:50:21;;;;;;;0.30;0.30;;;;;;;;;;4954019;29;20195;-73
2022/03/21 01:55:43;;;;;;;0.10;0.10;;;;;;;;;;4953821;29;20652;-73
2022/03/21 01:55:43;;;;;;;0.00;0.00;;;;;;;;;;4953736;29;20195;-73
2022/03/21 01:58:12;;;;;;;0.00;0.00;;;;;;;;;;4953949;29;20750;-72
2022/03/21 02:00:41;;;;;;;0.60;0.60;;;;;;;;;;4953595;29;20644;-74
2022/03/21 02:03:08;;;;;;;0.00;0.00;;;;;;;;;;4953882;29;20313;-73
2022/03/21 02:05:38;;;;;;;2.47;2.37;;;;;;;;;;4954048;29;20560;-73
2022/03/21 02:08:05;;;;;;;0.10;0.10;;;;;;;;;;4953835;29;20226;-73
2022/03/21 02:10:33;;;;;;;0.00;0.00;;;;;;;;;;4953488;29;20195;-72
2022/03/21 02:13:02;;;;;;;0.00;0.00;;;;;;;;;;4953716;29;20203;-72
2022/03/21 02:15:30;;;;;;;0.10;0.10;;;;;;;;;;4953669;29;20192;-71
2022/03/21 02:18:01;;;;;;;0.10;0.10;;;;;;;;;;4955724;28;20237;-72
2022/03/21 02:20:29;;;;;;;0.00;0.00;;;;;;;;;;4957363;29;20199;-72
2022/03/21 02:23:01;;;;;;;0.20;0.20;;;;;;;;;;4957485;29;20226;-73
2022/03/21 02:25:32;;;;;;;0.00;0.00;;;;;;;;;;4957323;29;20290;-73
2022/03/21 02:28:01;;;;;;;0.00;0.00;;;;;;;;;;4957435;28;20191;-73
2022/03/21 02:30:29;;;;;;;1.70;1.60;;;;;;;;;;4957281;28;20195;-72
2022/03/21 02:32:57;;;;;;;0.00;0.00;;;;;;;;;;4957239;29;20282;-72
2022/03/21 02:35:26;;;;;;;0.00;0.00;;;;;;;;;;4957226;29;20225;-72
2022/03/21 02:37:54;;;;;;;0.77;0.77;;;;;;;;;;4957170;29;20195;-72
2022/03/21 02:40:21;;;;;;;0.00;0.00;;;;;;;;;;4956987;29;20519;-72
2022/03/21 02:42:50;;;;;;;0.00;0.00;;;;;;;;;;4956912;29;20555;-72
2022/03/21 02:45:18;;;;;;;0.00;0.00;;;;;;;;;;4957049;29;20195;-69
2022/03/21 02:47:45;;;;;;;1.80;1.70;;;;;;;;;;4956974;29;20196;-72
2022/03/21 02:50:15;;;;;;;0.00;0.00;;;;;;;;;;4956877;29;20559;-72
2022/03/21 02:52:43;;;;;;;0.00;0.00;;;;;;;;;;4956513;29;20207;-72
2022/03/21 02:55:11;;;;;;;0.23;0.23;;;;;;;;;;4956757;29;20644;-73
2022/03/21 02:57:38;;;;;;;0.00;0.00;;;;;;;;;;4956754;29;20227;-71
2022/03/21 03:00:12;;;;;;;0.50;0.50;;;;;;;;;;4956679;29;20202;-71
2022/03/21 03:02:40;;;;;;;0.77;0.77;;;;;;;;;;4956655;29;20227;-72
2022/03/21 03:05:07;;;;;;;3.00;2.80;;;;;;;;;;4956591;29;20202;-72
2022/03/21 03:07:35;;;;;;;0.07;0.07;;;;;;;;;;4956543;29;20195;-72
2022/03/21 03:10:03;;;;;;;1.00;1.00;;;;;;;;;;4956658;29;20265;-72
2022/03/21 03:12:31;;;;;;;0.03;0.03;;;;;;;;;;4956397;29;20230;-71
2022/03/21 03:14:58;;;;;;;0.00;0.00;;;;;;;;;;4956429;29;20294;-72
2022/03/21 03:17:27;;;;;;;0.30;0.30;;;;;;;;;;4956419;29;20198;-72
2022/03/21 03:19:55;;;;;;;0.40;0.40;;;;;;;;;;4956556;29;20202;-72
2022/03/21 03:22:23;;;;;;;2.33;1.03;;;;;;;;;;4956461;29;20199;-72
2022/03/21 03:24:52;;;;;;;0.43;0.43;;;;;;;;;;4956085;29;20652;-72
2022/03/21 03:27:19;;;;;;;0.00;0.00;;;;;;;;;;4956425;29;20656;-72
2022/03/21 03:29:46;;;;;;;0.00;0.00;;;;;;;;;;4955743;29;20644;-72
2022/03/21 03:32:14;;;;;;;2.10;2.07;;;;;;;;;;4956121;29;20203;-72
2022/03/21 03:34:43;;;;;;;0.00;0.00;;;;;;;;;;4956168;29;20563;-72
2022/03/21 03:37:11;;;;;;;0.00;0.00;;;;;;;;;;4956037;29;20197;-72
2022/03/21 03:39:38;;;;;;;0.00;0.00;;;;;;;;;;4956197;29;20258;-72
2022/03/21 03:42:07;;;;;;;0.27;0.27;;;;;;;;;;4955890;29;20652;-71
2022/03/21 03:44:35;;;;;;;0.67;0.67;;;;;;;;;;4955598;29;20649;-72
2022/03/21 03:47:03;;;;;;;0.77;0.77;;;;;;;;;;4955766;29;20199;-72
2022/03/21 03:49:30;;;;;;;0.10;0.10;;;;;;;;;;4956041;29;20199;-73
2022/03/21 03:51:59;;;;;;;0.27;0.27;;;;;;;;;;4955941;29;20195;-72
2022/03/21 03:54:26;;;;;;;0.77;0.77;;;;;;;;;;4955871;29;20199;-72
2022/03/21 03:56:54;;;;;;;0.50;0.50;;;;;;;;;;4955277;29;20235;-71
2022/03/21 03:59:22;;;;;;;0.00;0.00;;;;;;;;;;4955699;29;20196;-71
2022/03/21 04:01:50;;;;;;;2.83;1.90;;;;;;;;;;4955856;29;20311;-72
2022/03/21 04:04:19;;;;;;;0.20;0.20;;;;;;;;;;4955491;28;20223;-73
2022/03/21 04:06:46;;;;;;;0.00;0.00;;;;;;;;;;4955298;29;20195;-72
2022/03/21 04:09:15;;;;;;;0.00;0.00;;;;;;;;;;4955499;28;20258;-72
2022/03/21 04:11:43;;;;;;;0.00;0.00;;;;;;;;;;4955402;28;20199;-72
2022/03/21 04:14:10;;;;;;;0.00;0.00;;;;;;;;;;4955648;29;20282;-72
2022/03/21 04:16:39;;;;;;;0.00;0.00;;;;;;;;;;4955293;29;20199;-71
2022/03/21 04:19:07;;;;;;;0.23;0.23;;;;;;;;;;4955524;29;20254;-72
2022/03/21 04:21:34;;;;;;;0.00;0.00;;;;;;;;;;4955298;29;20550;-72
2022/03/21 04:24:03;;;;;;;1.27;1.27;;;;;;;;;;4955265;28;20227;-73
2022/03/21 04:26:31;;;;;;;0.00;0.00;;;;;;;;;;4955130;28;20198;-73
2022/03/21 04:29:02;;;;;;;0.83;0.60;;;;;;;;;;4955345;29;20199;-72
2022/03/21 04:31:30;;;;;;;0.00;0.00;;;;;;;;;;4955164;28;20555;-72
2022/03/21 04:33:58;;;;;;;0.00;0.00;;;;;;;;;;4955430;29;20210;-72
2022/03/21 04:36:25;;;;;;;0.00;0.00;;;;;;;;;;4954925;29;20197;-72
2022/03/21 04:38:53;;;;;;;0.43;0.43;;;;;;;;;;4954687;29;20191;-72
2022/03/21 04:41:20;;;;;;;0.00;0.00;;;;;;;;;;4954319;28;20591;-72
2022/03/21 04:43:49;;;;;;;0.00;0.00;;;;;;;;;;4954749;29;20227;-71
2022/03/21 04:46:17;;;;;;;0.20;0.20;;;;;;;;;;4954908;28;20203;-72
2022/03/21 04:48:45;;;;;;;0.70;0.70;;;;;;;;;;4954648;29;20195;-71
2022/03/21 04:51:12;;;;;;;1.40;1.33;;;;;;;;;;4954956;29;20222;-71
2022/03/21 04:53:40;;;;;;;1.10;0.60;;;;;;;;;;4954611;29;20218;-72
2022/03/21 04:56:08;;;;;;;0.00;0.00;;;;;;;;;;4954965;29;20610;-72
2022/03/21 04:58:35;;;;;;;0.60;0.60;;;;;;;;;;4954143;29;20226;-70
2022/03/21 05:01:04;;;;;;;0.00;0.00;;;;;;;;;;4954630;29;20285;-72
2022/03/21 05:03:32;;;;;;;0.30;0.30;;;;;;;;;;4954480;29;20309;-72
2022/03/21 05:06:00;;;;;;;0.63;0.63;;;;;;;;;;4954409;28;20731;-72
2022/03/21 05:08:27;;;;;;;0.30;0.30;;;;;;;;;;4954629;29;20199;-72
2022/03/21 05:10:56;;;;;;;0.00;0.00;;;;;;;;;;4954469;29;20525;-72
2022/03/21 05:13:24;;;;;;;0.20;0.20;;;;;;;;;;4954528;29;20202;-73
2022/03/21 05:15:52;;;;;;;0.00;0.00;;;;;;;;;;4954272;29;20190;-72
2022/03/21 05:18:22;;;;;;;1.33;1.33;;;;;;;;;;4954338;29;20203;-72
2022/03/21 05:20:50;;;;;;;0.00;0.00;;;;;;;;;;4954427;29;20205;-72
2022/03/21 05:31:32;;;;;;;0.50;0.50;;;;;;;;;;4954462;29;20206;-71
2022/03/21 05:36:46;;;;;;;0.00;0.00;;;;;;;;;;4954069;29;20602;-72
2022/03/21 05:39:14;;;;;;;0.07;0.07;;;;;;;;;;4954235;29;20210;-72
2022/03/21 05:41:41;;;;;;;0.00;0.00;;;;;;;;;;4954086;28;20195;-72
2022/03/21 05:44:11;;;;;;;0.50;0.50;;;;;;;;;;4954155;29;20230;-73
2022/03/21 05:46:39;;;;;;;0.10;0.10;;;;;;;;;;4954001;29;20203;-72
2022/03/21 05:49:08;;;;;;;0.00;0.00;;;;;;;;;;4954170;29;20295;-73
2022/03/21 05:51:36;;;;;;;0.90;0.90;;;;;;;;;;4955363;28;20191;-71
2022/03/21 05:54:05;;;;;;;0.40;0.40;;;;;;;;;;4957856;29;20474;-71
2022/03/21 05:56:33;;;;;;;0.00;0.00;;;;;;;;;;4957391;29;20242;-70
2022/03/21 06:00:20;;;;;;;0.00;0.00;;;;;;;;;;4957917;29;20186;-71
2022/03/21 06:01:48;;;;;;;0.00;0.00;;;;;;;;;;4957695;29;20249;-73
2022/03/21 06:04:18;;;;;;;0.73;0.73;;;;;;;;;;4957591;29;20321;-72
2022/03/21 06:06:46;;;;;;;0.00;0.00;;;;;;;;;;4957784;28;20191;-72
2022/03/21 06:09:15;;;;;;;0.00;0.00;;;;;;;;;;4957753;29;20205;-71
2022/03/21 06:11:48;;;;;;;5.77;5.40;;;;;;;;;;4958034;29;20609;-71
2022/03/21 06:14:18;;;;;;;0.00;0.00;;;;;;;;;;4957531;29;20224;-71
2022/03/21 06:16:46;;;;;;;3.60;3.40;;;;;;;;;;4957431;29;20210;-71
2022/03/21 06:19:14;;;;;;;0.00;0.00;;;;;;;;;;4957505;29;20195;-71
2022/03/21 06:21:43;;;;;;;0.00;0.00;;;;;;;;;;4957446;29;20672;-71
2022/03/21 06:24:12;;;;;;;0.00;0.00;;;;;;;;;;4957236;29;20226;-72
2022/03/21 06:26:40;;;;;;;0.73;0.73;;;;;;;;;;4956984;29;20194;-72
2022/03/21 06:29:08;;;;;;;0.00;0.00;;;;;;;;;;4957161;29;20652;-72
2022/03/21 06:31:36;;;;;;;0.00;0.00;;;;;;;;;;4957403;29;20199;-72
2022/03/21 06:34:04;;;;;;;0.80;0.77;;;;;;;;;;4957459;29;20206;-72
2022/03/21 06:36:32;;;;;;;0.00;0.00;;;;;;;;;;4957162;29;20203;-72
2022/03/21 06:39:00;;;;;;;0.10;0.10;;;;;;;;;;4957101;28;20255;-72
2022/03/21 06:41:28;;;;;;;0.00;0.00;;;;;;;;;;4957096;29;20206;-72
2022/03/21 06:43:56;;;;;;;0.47;0.47;;;;;;;;;;4957028;28;20227;-73
2022/03/21 06:46:24;;;;;;;0.90;0.90;;;;;;;;;;4957258;29;20199;-73
2022/03/21 06:48:51;;;;;;;1.40;1.30;;;;;;;;;;4956920;29;20266;-72
2022/03/21 06:51:19;;;;;;;0.00;0.00;;;;;;;;;;4957131;29;20195;-72
2022/03/21 06:53:46;;;;;;;0.40;0.40;;;;;;;;;;4956840;29;20195;-72
2022/03/21 06:56:15;;;;;;;0.00;0.00;;;;;;;;;;4956846;29;20222;-71
2022/03/21 06:58:43;;;;;;;0.00;0.00;;;;;;;;;;4956189;29;20326;-72
2022/03/21 07:01:10;;;;;;;0.00;0.00;;;;;;;;;;4956978;29;20281;-72
2022/03/21 07:03:38;;;;;;;3.40;1.17;;;;;;;;;;4956008;28;20230;-70
2022/03/21 07:06:05;;;;;;;1.23;1.13;;;;;;;;;;4956581;29;20289;-70
2022/03/21 07:08:33;;;;;;;0.10;0.10;;;;;;;;;;4956292;29;20674;-73
2022/03/21 07:11:00;;;;;;;0.10;0.10;;;;;;;;;;4956449;29;20230;-71
2022/03/21 07:13:30;;;;;;;2.37;1.80;;;;;;;;;;4956419;28;20648;-71
2022/03/21 07:15:57;;;;;;;0.10;0.10;;;;;;;;;;4956450;29;20231;-71
2022/03/21 07:18:25;;;;;;;1.00;0.93;;;;;;;;;;4956556;29;20203;-72
2022/03/21 07:20:53;;;;;;;4.20;3.83;;;;;;;;;;4956217;29;20249;-72
2022/03/21 07:23:20;;;;;;;0.00;0.00;;;;;;;;;;4956387;29;20206;-71
2022/03/21 07:25:49;;;;;;;1.63;1.53;;;;;;;;;;4956316;29;20213;-72
2022/03/21 07:28:16;;;;;;;0.00;0.00;;;;;;;;;;4956270;29;20652;-72
2022/03/21 07:30:45;;;;;;;0.27;0.27;;;;;;;;;;4955975;29;20672;-72
2022/03/21 07:33:13;;;;;;;1.40;1.37;;;;;;;;;;4956247;29;20559;-71
2022/03/21 07:35:41;;;;;;;3.13;2.93;;;;;;;;;;4956217;29;20199;-72
2022/03/21 07:38:09;;;;;;;0.00;0.00;;;;;;;;;;4955918;29;20202;-72
2022/03/21 07:40:36;;;;;;;0.10;0.10;;;;;;;;;;4956037;29;20225;-74
2022/03/21 07:43:04;;;;;;;3.87;3.33;;;;;;;;;;4956171;29;20221;-72
2022/03/21 07:48:18;;;;;;;0.53;0.53;;;;;;;;;;4956015;29;20302;-71
2022/03/21 07:50:46;;;;;;;9.83;5.83;;;;;;;;;;4955378;29;20201;-70
2022/03/21 07:53:13;;;;;;;1.53;1.43;;;;;;;;;;4955948;29;20206;-74
2022/03/21 07:55:41;;;;;;;1.23;1.13;;;;;;;;;;4955888;29;20711;-72
2022/03/21 07:58:09;;;;;;;0.60;0.53;;;;;;;;;;4955482;29;20227;-72
2022/03/21 08:00:36;;;;;;;0.50;0.50;;;;;;;;;;4955543;29;20568;-73
2022/03/21 08:03:04;;;;;;;0.20;0.20;;;;;;;;;;4955561;29;20289;-72
2022/03/21 08:05:33;;;;;;;1.30;0.50;;;;;;;;;;4955612;29;20279;-77
2022/03/21 08:08:00;;;;;;;0.30;0.30;;;;;;;;;;4955483;29;20793;-72
2022/03/21 08:10:29;;;;;;;0.00;0.00;;;;;;;;;;4956020;29;20206;-72
2022/03/21 08:12:57;;;;;;;6.33;2.33;;;;;;;;;;4955388;28;20209;-72
2022/03/21 08:15:26;;;;;;;1.37;1.10;;;;;;;;;;4955427;28;20206;-70
2022/03/21 08:17:56;;;;;;;0.10;0.10;;;;;;;;;;4955129;29;20633;-77
2022/03/21 08:20:33;;;;;;;0.73;0.73;;;;;;;;;;4955070;28;20283;-71
2022/03/21 08:23:03;;;;;;;2.03;1.83;;;;;;;;;;4955500;29;20595;-72
2022/03/21 08:25:31;;;;;;;0.00;0.00;;;;;;;;;;4955058;29;20614;-72
2022/03/21 08:27:58;;;;;;;0.27;0.27;;;;;;;;;;4954964;28;20206;-72
2022/03/21 08:30:27;;;;;;;0.13;0.13;;;;;;;;;;4954915;29;20199;-71
2022/03/21 08:32:54;;;;;;;1.90;0.63;;;;;;;;;;4955060;29;20652;-71
2022/03/21 08:35:22;;;;;;;1.53;1.43;;;;;;;;;;4954983;29;20231;-70
2022/03/21 08:37:50;;;;;;;1.13;1.03;;;;;;;;;;4954739;29;20206;-71
2022/03/21 08:40:19;;;;;;;0.43;0.43;;;;;;;;;;4954757;29;20659;-71
2022/03/21 08:42:47;;;;;;;0.63;0.63;;;;;;;;;;4954504;29;20202;-70
2022/03/21 08:45:15;;;;;;;1.10;0.90;;;;;;;;;;4955162;29;20210;-73
2022/03/21 08:47:43;;;;;;;0.53;0.53;;;;;;;;;;4954999;29;20223;-72
2022/03/21 08:50:11;;;;;;;2.00;1.70;;;;;;;;;;4954838;29;20237;-71
2022/03/21 08:52:39;;;;;;;0.83;0.83;;;;;;;;;;4954471;29;20687;-71
2022/03/21 08:55:07;;;;;;;3.13;1.67;;;;;;;;;;4954743;28;20230;-80
2022/03/21 08:57:36;;;;;;;0.23;0.23;;;;;;;;;;4954327;29;20233;-70
2022/03/21 09:00:05;;;;;;;0.00;0.00;;;;;;;;;;4954629;29;20578;-70
2022/03/21 09:02:33;;;;;;;0.45;0.45;;;;;;;;;;4954510;28;20191;-71
2022/03/21 09:05:00;;;;;;;1.55;1.45;;;;;;;;;;4954792;29;20235;-71
2022/03/21 09:07:28;;;;;;;4.45;1.90;;;;;;;;;;4954457;29;20205;-71
2022/03/21 09:09:56;;;;;;;1.27;1.00;;;;;;;;;;4954323;29;20195;-71
2022/03/21 09:12:23;;;;;;;0.50;0.50;;;;;;;;;;4954692;28;20190;-70
2022/03/21 09:14:53;;;;;;;1.73;1.60;;;;;;;;;;4953967;29;20227;-70
2022/03/21 09:17:20;;;;;;;0.00;0.00;;;;;;;;;;4954458;28;20588;-71
2022/03/21 09:19:48;;;;;;;0.13;0.13;;;;;;;;;;4954351;29;20201;-70
2022/03/21 09:22:15;;;;;;;1.75;1.33;;;;;;;;;;4954137;29;20199;-70
2022/03/21 09:24:42;;;;;;;0.55;0.55;;;;;;;;;;4954207;29;20199;-70
2022/03/21 09:27:11;;;;;;;1.30;1.20;;;;;;;;;;4953862;28;20195;-69
2022/03/21 09:29:39;;;;;;;0.00;0.00;;;;;;;;;;4954337;29;20599;-70
2022/03/21 09:32:08;;;;;;;2.38;2.15;;;;;;;;;;4954437;29;20289;-70
2022/03/21 09:34:39;;;;;;;1.45;1.10;;;;;;;;;;4953810;29;20228;-70
2022/03/21 09:37:07;;;;;;;0.68;0.60;;;;;;;;;;4954048;29;20203;-69
2022/03/21 09:39:35;;;;;;;0.00;0.00;;;;;;;;;;4954341;29;20215;-69
2022/03/21 09:42:03;;;;;;;0.63;0.55;;;;;;;;;;4954247;29;20210;-69
2022/03/21 09:44:31;;;;;;;1.27;1.17;;;;;;;;;;4954137;29;20195;-76
2022/03/21 09:48:08;;;;;;;0.55;0.47;;;;;;;;;;4954176;29;20191;-68
2022/03/21 09:49:50;;;;;;;0.00;0.00;;;;;;;;;;4953967;29;20195;-67
2022/03/21 09:52:18;;;;;;;2.92;2.05;;;;;;;;;;4954118;29;20278;-67
2022/03/21 09:54:46;;;;;;;1.92;1.45;;;;;;;;;;4953873;29;20249;-69
2022/03/21 09:57:14;;;;;;;0.00;0.00;;;;;;;;;;4953833;29;20230;-68
2022/03/21 09:59:41;;;;;;;0.00;0.00;;;;;;;;;;4953901;29;20282;-68
2022/03/21 10:02:10;;;;;;;0.60;0.47;;;;;;;;;;4954165;29;20195;-68
2022/03/21 10:04:38;;;;;;;0.20;0.20;;;;;;;;;;4953979;29;20286;-68
2022/03/21 10:07:07;;;;;;;0.65;0.65;;;;;;;;;;4954078;29;20210;-68
2022/03/21 10:09:35;;;;;;;0.98;0.98;;;;;;;;;;4953931;29;20227;-68
2022/03/21 10:12:03;;;;;;;0.65;0.65;;;;;;;;;;4953805;29;20196;-68
2022/03/21 10:14:33;;;;;;;1.17;1.02;;;;;;;;;;4953694;29;20241;-69
2022/03/21 10:17:02;;;;;;;1.58;1.45;;;;;;;;;;4953899;29;20217;-70
2022/03/21 10:19:42;;;;;;;1.10;1.05;;;;;;;;;;4953794;29;20199;-69
2022/03/21 10:22:12;;;;;;;0.98;0.98;;;;;;;;;;4953753;29;20195;-69
2022/03/21 10:24:41;;;;;;;0.57;0.57;;;;;;;;;;4953435;29;20239;-70
2022/03/21 10:27:09;;;;;;;0.85;0.85;;;;;;;;;;4953831;29;20241;-69
2022/03/21 10:29:52;;;;;;;1.75;1.50;;;;;;;;;;4953589;29;20702;-70
2022/03/21 10:32:31;;;;;;;1.65;1.55;;;;;;;;;;4953518;29;20195;-69
2022/03/21 10:35:01;;;;;;;1.15;1.08;;;;;;;;;;4953495;29;20715;-70
2022/03/21 10:37:41;;;;;;;2.30;0.65;;;;;;;;;;4953748;28;20190;-68
2022/03/21 10:40:18;;;;;;;0.32;0.32;;;;;;;;;;4957277;28;20199;-68
2022/03/21 10:42:52;;;;;;;1.55;1.02;;;;;;;;;;4956656;28;20222;-68
2022/03/21 10:45:20;;;;;;;0.40;0.22;;;;;;;;;;4956985;29;20249;-68
2022/03/21 10:47:51;;;;;;;1.52;1.08;;;;;;;;;;4957019;28;20659;-68
2022/03/21 10:50:28;;;;;;;2.80;1.63;;;;;;;;;;4956834;29;20226;-68
2022/03/21 10:53:20;;;;;;;0.00;0.00;;;;;;;;;;4959467;29;20199;-66
2022/03/21 10:55:50;;;;;;;3.30;2.85;;;;;;;;;;4952697;28;20671;-67
2022/03/21 10:58:19;;;;;;;0.87;0.87;;;;;;;;;;4957607;29;20242;-69
2022/03/21 11:00:46;;;;;;;2.70;2.53;;;;;;;;;;4956521;29;20310;-67
2022/03/21 11:03:15;;;;;;;2.33;1.47;;;;;;;;;;4959535;29;20221;-67
2022/03/21 11:05:44;;;;;;;0.33;0.33;;;;;;;;;;4959503;29;20591;-67
2022/03/21 11:08:13;;;;;;;1.23;1.17;;;;;;;;;;4956848;29;20286;-70
2022/03/21 11:10:40;;;;;;;1.20;1.13;;;;;;;;;;4956301;28;20191;-68
2022/03/21 11:13:10;;;;;;;0.33;0.33;;;;;;;;;;4956590;29;20205;-69
2022/03/21 11:15:40;;;;;;;0.00;0.00;;;;;;;;;;4956579;29;20238;-68
2022/03/21 11:18:08;;;;;;;1.57;0.60;;;;;;;;;;4956357;29;20191;-70
2022/03/21 11:20:37;;;;;;;0.00;0.00;;;;;;;;;;4956280;29;20205;-69
2022/03/21 11:23:05;;;;;;;0.47;0.47;;;;;;;;;;4956237;29;20241;-68
2022/03/21 11:25:34;;;;;;;0.00;0.00;;;;;;;;;;4956461;29;20641;-68
2022/03/21 11:28:26;;;;;;;2.27;2.17;;;;;;;;;;4956159;29;20198;-68
2022/03/21 11:31:03;;;;;;;0.20;0.20;;;;;;;;;;4936487;28;20704;-68
2022/03/21 11:33:36;;;;;;;0.13;0.13;;;;;;;;;;4956130;28;20205;-68
2022/03/21 11:36:05;;;;;;;4.73;1.43;;;;;;;;;;4955898;29;20257;-68
2022/03/21 11:38:35;;;;;;;1.30;1.27;;;;;;;;;;4955875;29;20191;-68
2022/03/21 11:41:14;;;;;;;0.60;0.40;;;;;;;;;;4955876;29;20303;-68
2022/03/21 11:43:42;;;;;;;0.80;0.80;;;;;;;;;;4956095;29;20230;-68
2022/03/21 11:46:30;;;;;;;1.70;1.60;;;;;;;;;;4955784;29;20196;-68
2022/03/21 11:48:58;;;;;;;1.17;1.08;;;;;;;;;;4955844;28;20199;-68
2022/03/21 11:51:30;;;;;;;1.27;0.88;;;;;;;;;;4955822;29;20195;-68
2022/03/21 11:53:58;;;;;;;2.63;1.23;;;;;;;;;;4955774;29;20195;-68
2022/03/21 11:56:44;;;;;;;2.53;1.35;;;;;;;;;;4955573;29;20722;-68
2022/03/21 11:59:32;;;;;;;1.02;0.98;;;;;;;;;;4955612;28;20559;-69
2022/03/21 12:02:01;;;;;;;0.70;0.60;;;;;;;;;;4955222;28;20679;-68
2022/03/21 12:04:30;;;;;;;0.20;0.20;;;;;;;;;;4955567;29;20195;-69
2022/03/21 12:06:59;;;;;;;1.02;0.90;;;;;;;;;;4955557;29;20199;-69
2022/03/21 12:09:39;;;;;;;0.68;0.68;;;;;;;;;;4955571;29;20209;-69
2022/03/21 12:12:10;;;;;;;0.00;0.00;;;;;;;;;;4955500;29;20660;-70
2022/03/21 12:14:41;;;;;;;0.00;0.00;;;;;;;;;;4955375;28;20238;-70
2022/03/21 12:17:30;;;;;;;0.35;0.35;;;;;;;;;;4955205;29;20629;-70
2022/03/21 12:20:05;;;;;;;1.60;1.08;;;;;;;;;;4955491;29;20600;-70
2022/03/21 12:22:40;;;;;;;0.45;0.17;;;;;;;;;;4955327;29;20652;-71
2022/03/21 12:25:09;;;;;;;1.65;1.55;;;;;;;;;;4955207;29;20610;-70
2022/03/21 12:27:38;;;;;;;0.77;0.77;;;;;;;;;;4955144;29;21211;-70
2022/03/21 12:30:23;;;;;;;0.52;0.52;;;;;;;;;;4955270;29;20259;-71
2022/03/21 12:32:53;;;;;;;2.72;1.45;;;;;;;;;;4954758;28;20668;-71
2022/03/21 12:35:40;;;;;;;0.00;0.00;;;;;;;;;;4954841;29;20230;-71
2022/03/21 12:38:09;;;;;;;1.27;1.17;;;;;;;;;;4954887;28;20258;-69
2022/03/21 12:40:38;;;;;;;0.98;0.98;;;;;;;;;;4954925;29;20199;-71
2022/03/21 12:43:06;;;;;;;0.65;0.65;;;;;;;;;;4954961;29;20206;-70
2022/03/21 12:45:34;;;;;;;0.00;0.00;;;;;;;;;;4955118;29;20286;-69
2022/03/21 12:48:05;;;;;;;2.10;1.55;;;;;;;;;;4954785;29;20455;-70
2022/03/21 12:50:34;;;;;;;3.50;1.85;;;;;;;;;;4954620;29;20195;-70
2022/03/21 12:53:02;;;;;;;5.18;1.65;;;;;;;;;;4954687;29;20612;-69
2022/03/21 12:55:29;;;;;;;0.93;0.93;;;;;;;;;;4954802;29;20223;-70
2022/03/21 12:57:58;;;;;;;1.77;1.67;;;;;;;;;;4954457;29;20243;-71
2022/03/21 13:00:30;;;;;;;0.00;0.00;;;;;;;;;;4954315;28;20198;-71
2022/03/21 13:02:58;;;;;;;0.20;0.20;;;;;;;;;;4954497;29;20207;-71
2022/03/21 13:11:04;;;;;;;0.82;0.80;;;;;;;;;;4954715;29;20254;-71
2022/03/21 13:13:42;;;;;;;2.10;1.85;;;;;;;;;;4954538;29;20222;-70
2022/03/21 13:16:10;;;;;;;1.45;0.47;;;;;;;;;;4954338;29;20233;-70
2022/03/21 13:18:39;;;;;;;3.03;2.78;;;;;;;;;;4954376;29;20563;-70
2022/03/21 13:21:09;;;;;;;0.50;0.43;;;;;;;;;;4954506;29;20195;-71
2022/03/21 13:23:37;;;;;;;1.05;1.00;;;;;;;;;;4954370;28;20672;-71
2022/03/21 13:26:09;;;;;;;0.45;0.45;;;;;;;;;;4954493;29;20199;-70
2022/03/21 13:28:38;;;;;;;0.80;0.68;;;;;;;;;;4954356;28;20195;-71
2022/03/21 13:31:09;;;;;;;1.92;1.75;;;;;;;;;;4954368;29;20195;-71
2022/03/21 13:33:37;;;;;;;1.17;1.08;;;;;;;;;;4954210;28;20206;-71
2022/03/21 13:36:05;;;;;;;0.13;0.13;;;;;;;;;;4954261;29;20215;-71
2022/03/21 13:38:37;;;;;;;0.00;0.00;;;;;;;;;;4953961;28;20246;-71
2022/03/21 13:41:13;;;;;;;0.00;0.00;;;;;;;;;;4954473;28;20198;-71
2022/03/21 13:43:41;;;;;;;0.55;0.55;;;;;;;;;;4954345;29;20203;-71
2022/03/21 13:46:09;;;;;;;1.58;1.48;;;;;;;;;;4954153;29;20202;-73
2022/03/21 13:48:38;;;;;;;0.98;0.98;;;;;;;;;;4953897;29;20199;-71
2022/03/21 13:51:10;;;;;;;1.10;0.95;;;;;;;;;;4954049;28;20195;-71
2022/03/21 13:53:39;;;;;;;0.30;0.30;;;;;;;;;;4954085;29;20327;-72
2022/03/21 13:56:07;;;;;;;0.45;0.45;;;;;;;;;;4953987;29;20233;-71
2022/03/21 13:58:37;;;;;;;2.00;1.70;;;;;;;;;;4953700;29;20722;-72
2022/03/21 14:01:18;;;;;;;1.50;1.42;;;;;;;;;;4953974;29;20195;-71
2022/03/21 14:03:48;;;;;;;1.52;1.42;;;;;;;;;;4954222;29;20206;-71
2022/03/21 14:06:16;;;;;;;1.17;1.17;;;;;;;;;;4954203;29;20195;-72
2022/03/21 14:08:45;;;;;;;1.55;0.77;;;;;;;;;;4953703;29;20641;-71
2022/03/21 14:11:14;;;;;;;1.48;1.38;;;;;;;;;;4954108;29;20195;-71
2022/03/21 14:13:43;;;;;;;0.90;0.90;;;;;;;;;;4957016;28;20203;-71
2022/03/21 14:16:10;;;;;;;0.00;0.00;;;;;;;;;;4957885;29;20318;-71
2022/03/21 14:18:39;;;;;;;0.00;0.00;;;;;;;;;;4957395;29;20230;-71
2022/03/21 14:21:08;;;;;;;0.00;0.00;;;;;;;;;;4957527;29;20250;-71
2022/03/21 14:23:37;;;;;;;0.20;0.20;;;;;;;;;;4957554;29;20645;-70
2022/03/21 14:28:50;;;;;;;2.50;1.73;;;;;;;;;;4957263;29;20210;-70
2022/03/21 14:31:18;;;;;;;0.00;0.00;;;;;;;;;;4957726;29;20253;-71
2022/03/21 14:33:46;;;;;;;0.00;0.00;;;;;;;;;;4957324;29;20206;-71
2022/03/21 14:36:13;;;;;;;0.00;0.00;;;;;;;;;;4957351;29;20261;-71
2022/03/21 14:38:41;;;;;;;1.65;1.55;;;;;;;;;;4957089;29;20543;-70
2022/03/21 14:41:13;;;;;;;1.67;1.35;;;;;;;;;;4957159;29;20210;-71
2022/03/21 14:43:40;;;;;;;0.10;0.08;;;;;;;;;;4957374;28;20207;-70
2022/03/21 14:46:08;;;;;;;1.08;1.08;;;;;;;;;;4957274;29;20195;-70
2022/03/21 14:48:35;;;;;;;0.28;0.28;;;;;;;;;;4957131;29;20209;-70
2022/03/21 14:51:05;;;;;;;1.15;1.08;;;;;;;;;;4957016;29;20199;-70
2022/03/21 14:53:32;;;;;;;2.08;1.88;;;;;;;;;;4956952;29;20195;-69
2022/03/21 14:56:00;;;;;;;1.77;1.60;;;;;;;;;;4957170;29;20289;-70
2022/03/21 14:58:30;;;;;;;0.03;0.03;;;;;;;;;;4956721;29;20286;-70
2022/03/21 15:00:58;;;;;;;0.47;0.47;;;;;;;;;;4957037;29;20539;-70
2022/03/21 15:03:26;;;;;;;0.00;0.00;;;;;;;;;;4957047;28;20599;-70
2022/03/21 15:05:54;;;;;;;0.00;0.00;;;;;;;;;;4956687;29;20205;-70
2022/03/21 15:08:22;;;;;;;0.75;0.75;;;;;;;;;;4956650;29;20199;-71
2022/03/21 15:10:49;;;;;;;1.85;1.75;;;;;;;;;;4956558;29;20201;-70
2022/03/21 15:13:17;;;;;;;0.52;0.52;;;;;;;;;;4956822;29;20281;-71
2022/03/21 15:15:47;;;;;;;0.93;0.93;;;;;;;;;;4956694;29;20195;-70
2022/03/21 15:18:15;;;;;;;0.80;0.38;;;;;;;;;;4956509;29;20236;-70